Página principal
METAR-TAF:

METAR-TAF

Aeroportos :

Kelibia, Tunísia

latitude: 36-51N, longitude: 011-05E, altura: 29 m

Observação actual do tempo

O boletim foi feito há 45 minutos, às 12:00 UTC
Vento 8 kt de noroeste, variando entre oeste e nordeste
Temperatura 16°C
Humidade 51%
Pressão 1026 hPa
Visibilidade 10 km ou mais
Poucas nuvensa uma altura de 2000 ft

METAR: DTTL 181200Z 32008KT 280V050 9999 FEW020 16/06 Q1026

Hora: 13:45 (12:45 UTC)


TAF: em falta

Observações e previsões do tempo de mais de 4000 aeroportos (mensagens METAR e TAF).

As estações disponíveis são os pontos amarelos e vermelhos sobre o mapa.

Mova o rato sobre o mapa para ver o nome da estação.

Depois clique no ponto para visualizar as observações e previsões meteorológicas.

Para alterar o mapa : clique nos botões verdes com uma cruz preta para aumentar o zoom; no botão verde com uma pitada de zoom; ou nas setas verdes para mapas adjacentes.


METAR-TAF: